Time;durP1;ratioP1;P1;durP2;ratioP2;P2;SDS_P1;SDS_P2;PMS_P1;PMS_P2;Temp;Humidity;BMP_temperature;BMP_pressure;BME280_temperature;BME280_humidity;BME280_pressure;Samples;Min_cycle;Max_cycle;Signal;HPM_P1;HPM_P2
2022/08/29 00:00:21;;;;;;;11.15;3.30;;;;;;;-144.48;100.00;62369.91;5010329;28;20120;-65
2022/08/29 00:02:48;;;;;;;11.73;3.22;;;;;;;-144.48;100.00;62369.91;5006347;28;20061;-65
2022/08/29 00:05:15;;;;;;;30.00;4.40;;;;;;;-144.48;100.00;62369.91;5011417;28;20030;-67
2022/08/29 00:07:40;;;;;;;9.55;3.45;;;;;;;-144.48;100.00;62369.91;5012009;28;20056;-67
2022/08/29 00:10:06;;;;;;;13.80;2.92;;;;;;;-144.48;100.00;62369.91;5022613;28;20044;-67
2022/08/29 00:12:32;;;;;;;10.23;2.80;;;;;;;-144.48;100.00;62369.91;5030136;28;20213;-67
2022/08/29 00:14:57;;;;;;;8.55;2.97;;;;;;;-144.48;100.00;62369.91;5013187;28;20034;-66
2022/08/29 00:17:23;;;;;;;9.85;3.20;;;;;;;-144.48;100.00;62369.91;5015253;28;20025;-66
2022/08/29 00:19:48;;;;;;;15.48;3.65;;;;;;;-144.48;100.00;62369.91;5032504;28;20084;-67
2022/08/29 00:22:13;;;;;;;12.38;3.40;;;;;;;-144.48;100.00;62369.91;5016710;28;20515;-64
2022/08/29 00:24:39;;;;;;;8.82;2.85;;;;;;;-144.48;100.00;62369.91;5012998;28;20026;-69
2022/08/29 00:27:04;;;;;;;11.05;3.47;;;;;;;-144.48;100.00;62369.91;5015283;28;20025;-67
2022/08/29 00:29:30;;;;;;;13.23;3.45;;;;;;;-144.48;100.00;62369.91;5032885;28;20034;-68
2022/08/29 00:31:55;;;;;;;10.90;3.40;;;;;;;-144.48;100.00;62369.91;5017531;28;20064;-67
2022/08/29 00:34:21;;;;;;;17.75;4.47;;;;;;;-144.48;100.00;62369.91;5012760;28;20037;-68
2022/08/29 00:36:46;;;;;;;9.93;3.65;;;;;;;-144.48;100.00;62369.91;5028654;28;20160;-69
2022/08/29 00:39:11;;;;;;;11.25;3.03;;;;;;;-144.48;100.00;62369.91;5023910;28;20109;-66
2022/08/29 00:41:37;;;;;;;22.48;3.92;;;;;;;-144.48;100.00;62369.91;5027470;28;20525;-68
2022/08/29 00:44:04;;;;;;;15.13;3.63;;;;;;;-144.48;100.00;62369.91;5023582;28;20037;-65
2022/08/29 00:46:41;;;;;;;14.48;3.25;;;;;;;-144.48;100.00;62369.91;5027954;28;20033;-67
2022/08/29 00:49:21;;;;;;;12.52;3.92;;;;;;;-144.48;100.00;62369.91;5014325;28;20061;-66
2022/08/29 00:51:47;;;;;;;10.07;3.65;;;;;;;-144.48;100.00;62369.91;5002366;28;20288;-67
2022/08/29 00:54:13;;;;;;;11.23;3.70;;;;;;;-144.48;100.00;62369.91;5028030;28;20075;-68
2022/08/29 00:56:40;;;;;;;10.38;3.20;;;;;;;-144.48;100.00;62369.91;5031771;28;20026;-68
2022/08/29 00:59:23;;;;;;;14.93;4.00;;;;;;;-144.48;100.00;62369.91;5018843;28;20022;-65
2022/08/29 01:01:48;;;;;;;12.73;4.13;;;;;;;-144.48;100.00;62369.91;5020742;28;20029;-68
2022/08/29 01:04:14;;;;;;;17.35;3.95;;;;;;;-144.48;100.00;62369.91;5011225;28;20047;-68
2022/08/29 01:06:40;;;;;;;9.77;3.45;;;;;;;-144.48;100.00;62369.91;5023809;28;20030;-67
2022/08/29 01:09:07;;;;;;;10.18;3.53;;;;;;;-144.48;100.00;62369.91;5027649;28;20040;-68
2022/08/29 01:14:19;;;;;;;11.60;3.55;;;;;;;-144.48;100.00;62369.91;5000532;28;20060;-67
2022/08/29 01:16:47;;;;;;;12.80;3.28;;;;;;;-144.48;100.00;62369.91;5024724;28;20539;-67
2022/08/29 01:19:45;;;;;;;15.23;3.83;;;;;;;-144.48;100.00;62369.91;5011618;28;20022;-65
2022/08/29 01:22:29;;;;;;;11.30;3.67;;;;;;;-144.48;100.00;62369.91;5030136;28;20062;-66
2022/08/29 01:24:57;;;;;;;10.25;3.58;;;;;;;-144.48;100.00;62369.91;5016598;28;20372;-67
2022/08/29 01:27:28;;;;;;;13.25;3.60;;;;;;;-144.48;100.00;62369.91;5011466;28;20192;-67
2022/08/29 01:29:54;;;;;;;11.20;3.90;;;;;;;-144.48;100.00;62369.91;5026625;28;20513;-67
2022/08/29 01:32:20;;;;;;;16.30;3.50;;;;;;;-144.48;100.00;62369.91;5022565;28;20034;-66
2022/08/29 01:34:45;;;;;;;13.60;4.35;;;;;;;-144.48;100.00;62369.91;5024702;28;20032;-66
2022/08/29 01:37:13;;;;;;;14.80;3.88;;;;;;;-144.48;100.00;62369.91;5009873;28;20021;-65
2022/08/29 01:39:41;;;;;;;16.40;3.70;;;;;;;-144.48;100.00;62369.91;5026083;28;20406;-65
2022/08/29 01:42:21;;;;;;;13.48;3.92;;;;;;;-144.48;100.00;62369.91;5030844;28;20052;-66
2022/08/29 01:44:52;;;;;;;16.38;3.78;;;;;;;-144.48;100.00;62369.91;5027124;28;20643;-67
2022/08/29 01:47:19;;;;;;;8.73;3.53;;;;;;;-144.48;100.00;62369.91;5016866;28;20033;-67
2022/08/29 01:49:44;;;;;;;12.25;3.50;;;;;;;-144.48;100.00;62369.91;5000563;28;20556;-67
2022/08/29 01:52:11;;;;;;;11.65;3.83;;;;;;;-144.48;100.00;62369.91;5032065;28;20037;-67
2022/08/29 01:54:39;;;;;;;10.43;3.50;;;;;;;-144.48;100.00;62369.91;5018100;28;20224;-66
2022/08/29 01:57:04;;;;;;;13.85;3.97;;;;;;;-144.48;100.00;62369.91;5017849;28;20021;-67
2022/08/29 01:59:30;;;;;;;9.57;3.25;;;;;;;-144.48;100.00;62369.91;5030939;28;20029;-67
2022/08/29 02:02:19;;;;;;;12.48;4.30;;;;;;;-144.48;100.00;62369.91;5017592;28;20025;-67
2022/08/29 02:04:48;;;;;;;11.23;3.10;;;;;;;-144.48;100.00;62369.91;5030690;28;20029;-65
2022/08/29 02:07:16;;;;;;;14.55;3.80;;;;;;;-144.48;100.00;62369.91;5013689;28;20025;-69
2022/08/29 02:09:42;;;;;;;15.65;4.13;;;;;;;-144.48;100.00;62369.91;5010641;28;20109;-67
2022/08/29 02:12:09;;;;;;;9.38;4.07;;;;;;;-144.48;100.00;62369.91;5023877;28;20084;-67
2022/08/29 02:14:35;;;;;;;12.45;3.78;;;;;;;-144.48;100.00;62369.91;5009452;28;20344;-67
2022/08/29 02:17:05;;;;;;;19.95;3.83;;;;;;;-144.48;100.00;62369.91;5013884;28;20034;-66
2022/08/29 02:19:32;;;;;;;12.50;4.28;;;;;;;-144.48;100.00;62369.91;5030828;28;20029;-67
2022/08/29 02:21:57;;;;;;;14.43;3.60;;;;;;;-144.48;100.00;62369.91;5026176;28;20022;-68
2022/08/29 02:24:23;;;;;;;10.20;3.80;;;;;;;-144.48;100.00;62369.91;5021838;28;20041;-66
2022/08/29 02:26:48;;;;;;;14.30;4.03;;;;;;;-144.48;100.00;62369.91;5011335;28;20496;-68
2022/08/29 02:29:14;;;;;;;16.02;4.75;;;;;;;-144.48;100.00;62369.91;5010846;28;20100;-67
2022/08/29 02:31:40;;;;;;;14.80;3.65;;;;;;;-144.48;100.00;62369.91;5014804;28;20064;-69
2022/08/29 02:34:07;;;;;;;13.13;3.63;;;;;;;-144.48;100.00;62369.91;5018974;28;20025;-65
2022/08/29 02:36:33;;;;;;;9.40;3.30;;;;;;;-144.48;100.00;62369.91;5025204;28;20055;-68
2022/08/29 02:38:59;;;;;;;16.15;4.65;;;;;;;-144.48;100.00;62369.91;5029882;28;20113;-68
2022/08/29 02:41:24;;;;;;;13.88;3.97;;;;;;;-144.48;100.00;62369.91;5016023;28;20029;-67
2022/08/29 02:43:50;;;;;;;15.45;4.32;;;;;;;-144.48;100.00;62369.91;5029907;28;20487;-67
2022/08/29 02:46:18;;;;;;;12.55;3.25;;;;;;;-144.48;100.00;62369.91;5029809;28;20497;-65
2022/08/29 02:48:45;;;;;;;12.98;3.72;;;;;;;-144.48;100.00;62369.91;5013710;28;20022;-68
2022/08/29 02:51:17;;;;;;;17.02;3.92;;;;;;;-144.48;100.00;62369.91;4999814;28;20414;-68
2022/08/29 02:53:43;;;;;;;13.38;3.65;;;;;;;-144.48;100.00;62369.91;5030075;28;20021;-67
2022/08/29 02:56:08;;;;;;;12.20;3.25;;;;;;;-144.48;100.00;62369.91;5030100;28;20518;-68
2022/08/29 02:58:34;;;;;;;13.23;3.63;;;;;;;-144.48;100.00;62369.91;5017501;28;20025;-68
2022/08/29 03:00:59;;;;;;;14.20;3.42;;;;;;;-144.48;100.00;62369.91;5009889;28;20024;-67
2022/08/29 03:03:26;;;;;;;15.88;3.90;;;;;;;-144.48;100.00;62369.91;5022210;28;20025;-67
2022/08/29 03:05:51;;;;;;;16.02;3.90;;;;;;;-144.48;100.00;62369.91;5016373;28;20033;-68
2022/08/29 03:08:17;;;;;;;10.65;3.47;;;;;;;-144.48;100.00;62369.91;5017825;28;20109;-67
2022/08/29 03:10:43;;;;;;;18.40;4.10;;;;;;;-144.48;100.00;62369.91;5028576;28;20025;-68
2022/08/29 03:13:09;;;;;;;15.35;3.95;;;;;;;-144.48;100.00;62369.91;5018275;28;20022;-67
2022/08/29 03:15:34;;;;;;;18.27;4.20;;;;;;;-144.48;100.00;62369.91;5023040;28;20013;-66
2022/08/29 03:18:00;;;;;;;9.80;3.95;;;;;;;-144.48;100.00;62369.91;5017586;28;20043;-68
2022/08/29 03:20:26;;;;;;;12.10;3.35;;;;;;;-144.48;100.00;62369.91;5009832;28;20482;-66
2022/08/29 03:22:53;;;;;;;20.40;4.00;;;;;;;-144.48;100.00;62369.91;5021446;28;20025;-66
2022/08/29 03:25:19;;;;;;;11.02;3.80;;;;;;;-144.48;100.00;62369.91;5029226;28;20108;-67
2022/08/29 03:27:45;;;;;;;12.27;4.35;;;;;;;-144.48;100.00;62369.91;5029107;28;20095;-67
2022/08/29 03:30:12;;;;;;;10.82;3.13;;;;;;;-144.48;100.00;62369.91;5016118;28;20445;-67
2022/08/29 03:32:38;;;;;;;14.18;3.53;;;;;;;-144.48;100.00;62369.91;5016991;28;20029;-65
2022/08/29 03:35:09;;;;;;;15.60;3.85;;;;;;;-144.48;100.00;62369.91;5015325;28;20029;-68
2022/08/29 03:37:35;;;;;;;12.52;4.20;;;;;;;-144.48;100.00;62369.91;5028752;28;20101;-67
2022/08/29 03:40:06;;;;;;;14.82;3.88;;;;;;;-144.48;100.00;62369.91;5029091;28;20113;-67
2022/08/29 03:42:31;;;;;;;12.15;3.50;;;;;;;-144.48;100.00;62369.91;5028387;28;20045;-68
2022/08/29 03:44:56;;;;;;;16.58;4.10;;;;;;;-144.48;100.00;62369.91;5009420;28;20120;-64
2022/08/29 03:47:22;;;;;;;15.30;4.18;;;;;;;-144.48;100.00;62369.91;5009516;28;20025;-65
2022/08/29 03:49:47;;;;;;;13.50;5.72;;;;;;;-144.48;100.00;62369.91;5001014;28;20018;-66
2022/08/29 03:52:13;;;;;;;16.38;4.30;;;;;;;-144.48;100.00;62369.91;5002701;28;20057;-68
2022/08/29 03:54:38;;;;;;;13.75;4.45;;;;;;;-144.48;100.00;62369.91;5021613;28;20030;-66
2022/08/29 03:57:05;;;;;;;14.05;4.55;;;;;;;-144.48;100.00;62369.91;5022008;28;20169;-66
2022/08/29 03:59:31;;;;;;;13.55;4.03;;;;;;;-144.48;100.00;62369.91;5021177;28;20028;-67
2022/08/29 04:01:57;;;;;;;13.73;3.65;;;;;;;-144.48;100.00;62369.91;5021426;28;20108;-66
2022/08/29 04:07:07;;;;;;;10.85;3.95;;;;;;;-144.48;100.00;62369.91;5028398;28;20128;-70
2022/08/29 04:09:33;;;;;;;12.32;3.60;;;;;;;-144.48;100.00;62369.91;5030502;28;20112;-69
2022/08/29 04:11:58;;;;;;;19.17;4.53;;;;;;;-144.48;100.00;62369.91;5017397;28;20496;-65
2022/08/29 04:14:24;;;;;;;19.48;4.13;;;;;;;-144.48;100.00;62369.91;5009586;28;20061;-68
2022/08/29 04:16:49;;;;;;;13.75;3.65;;;;;;;-144.48;100.00;62369.91;5017897;28;20112;-69
2022/08/29 04:19:20;;;;;;;10.93;4.25;;;;;;;-144.48;100.00;62369.91;5011403;28;20120;-68
2022/08/29 04:21:47;;;;;;;16.77;5.32;;;;;;;-144.48;100.00;62369.91;5012060;28;20507;-68
2022/08/29 04:24:14;;;;;;;15.98;4.38;;;;;;;-144.48;100.00;62369.91;5012700;28;20108;-68
2022/08/29 04:26:39;;;;;;;12.70;4.30;;;;;;;-144.48;100.00;62369.91;5007171;28;20041;-67
2022/08/29 04:29:07;;;;;;;9.00;4.18;;;;;;;-144.48;100.00;62369.91;5015917;28;20037;-68
2022/08/29 04:31:34;;;;;;;26.35;4.53;;;;;;;-144.48;100.00;62369.91;5023850;28;20053;-67
2022/08/29 04:33:59;;;;;;;15.02;4.10;;;;;;;-144.48;100.00;62369.91;5021371;28;20029;-67
2022/08/29 04:36:25;;;;;;;18.70;4.90;;;;;;;-144.48;100.00;62369.91;5024242;28;20053;-65
2022/08/29 04:38:50;;;;;;;12.98;4.38;;;;;;;-144.48;100.00;62369.91;5031557;28;20025;-67
2022/08/29 04:41:15;;;;;;;14.70;4.47;;;;;;;-144.48;100.00;62369.91;5018302;28;20042;-67
2022/08/29 04:43:41;;;;;;;13.77;4.47;;;;;;;-144.48;100.00;62369.91;5028617;28;20025;-66
2022/08/29 04:46:07;;;;;;;14.30;5.03;;;;;;;-144.48;100.00;62369.91;5016844;28;20069;-66
2022/08/29 04:48:32;;;;;;;20.05;5.57;;;;;;;-144.48;100.00;62369.91;5011293;28;20053;-68
2022/08/29 04:51:00;;;;;;;16.52;5.50;;;;;;;-144.48;100.00;62369.91;5024690;28;20107;-67
2022/08/29 04:53:27;;;;;;;17.30;4.95;;;;;;;-144.48;100.00;62369.91;5011909;28;20037;-68
2022/08/29 04:56:05;;;;;;;15.55;4.25;;;;;;;-144.48;100.00;62369.91;5013499;28;20109;-68
2022/08/29 04:58:32;;;;;;;16.05;6.18;;;;;;;-144.48;100.00;62369.91;5031926;28;20030;-67
2022/08/29 05:00:57;;;;;;;11.20;4.88;;;;;;;-144.48;100.00;62369.91;5031626;28;20026;-67
2022/08/29 05:03:23;;;;;;;16.10;4.75;;;;;;;-144.48;100.00;62369.91;5008091;28;20029;-66
2022/08/29 05:06:00;;;;;;;14.85;5.25;;;;;;;-144.48;100.00;62369.91;5025648;28;20064;-67
2022/08/29 05:08:27;;;;;;;47.65;5.68;;;;;;;-144.48;100.00;62369.91;5018359;28;20022;-67
2022/08/29 05:10:52;;;;;;;18.30;5.18;;;;;;;-144.48;100.00;62369.91;5029291;28;20509;-66
2022/08/29 05:13:18;;;;;;;15.10;4.85;;;;;;;-144.48;100.00;62369.91;5012011;28;20030;-67
2022/08/29 05:15:44;;;;;;;17.80;4.78;;;;;;;-144.48;100.00;62369.91;5010616;28;20101;-67
2022/08/29 05:18:10;;;;;;;16.80;5.20;;;;;;;-144.48;100.00;62369.91;5009806;28;20041;-67
2022/08/29 05:20:39;;;;;;;13.75;4.75;;;;;;;-144.48;100.00;62369.91;5009140;28;20045;-67
2022/08/29 05:23:04;;;;;;;22.88;4.95;;;;;;;-144.48;100.00;62369.91;5024772;28;20022;-66
2022/08/29 05:25:29;;;;;;;17.88;5.05;;;;;;;-144.48;100.00;62369.91;5007835;28;20041;-68
2022/08/29 05:27:55;;;;;;;19.85;5.88;;;;;;;-144.48;100.00;62369.91;5016866;28;20026;-67
2022/08/29 05:30:20;;;;;;;22.42;5.15;;;;;;;-144.48;100.00;62369.91;5009496;28;20026;-67
2022/08/29 05:32:45;;;;;;;16.00;5.82;;;;;;;-144.48;100.00;62369.91;5008074;28;20559;-67
2022/08/29 05:35:11;;;;;;;16.60;5.03;;;;;;;-144.48;100.00;62369.91;5018426;28;20040;-65
2022/08/29 05:37:37;;;;;;;18.95;5.70;;;;;;;-144.48;100.00;62369.91;5029374;28;20029;-67
2022/08/29 05:42:38;;;;;;;19.20;5.55;;;;;;;-144.48;100.00;62369.91;5027279;28;20057;-68
2022/08/29 05:45:05;;;;;;;15.38;4.70;;;;;;;-144.48;100.00;62369.91;5030410;28;20025;-67
2022/08/29 05:47:31;;;;;;;18.80;4.80;;;;;;;-144.48;100.00;62369.91;5030693;28;20037;-68
2022/08/29 05:49:57;;;;;;;13.70;4.65;;;;;;;-144.48;100.00;62369.91;5021124;28;20068;-68
2022/08/29 05:52:22;;;;;;;13.93;4.90;;;;;;;-144.48;100.00;62369.91;5025118;28;20044;-68
2022/08/29 05:54:48;;;;;;;18.25;4.63;;;;;;;-144.48;100.00;62369.91;5022694;28;20121;-67
2022/08/29 05:57:17;;;;;;;19.25;6.30;;;;;;;-144.48;100.00;62369.91;5023252;28;20029;-69
2022/08/29 05:59:42;;;;;;;21.30;5.93;;;;;;;-144.48;100.00;62369.91;5029023;28;20056;-67
2022/08/29 06:02:09;;;;;;;13.82;4.75;;;;;;;-144.48;100.00;62369.91;5029823;28;20270;-67
2022/08/29 06:04:35;;;;;;;18.90;5.35;;;;;;;-144.48;100.00;62369.91;5029721;28;20056;-70
2022/08/29 06:07:00;;;;;;;18.65;5.40;;;;;;;-144.48;100.00;62369.91;5029648;28;20495;-69
2022/08/29 06:09:27;;;;;;;17.92;4.40;;;;;;;-144.48;100.00;62369.91;5028626;28;20482;-70
2022/08/29 06:11:53;;;;;;;13.20;4.57;;;;;;;-144.48;100.00;62369.91;5030404;28;20091;-69
2022/08/29 06:14:19;;;;;;;14.18;4.38;;;;;;;-144.48;100.00;62369.91;5030149;28;20021;-69
2022/08/29 06:16:44;;;;;;;11.98;4.30;;;;;;;-144.48;100.00;62369.91;5030570;28;20025;-71
2022/08/29 06:19:10;;;;;;;12.07;4.18;;;;;;;-144.48;100.00;62369.91;5029916;28;20105;-68
2022/08/29 06:21:36;;;;;;;15.45;4.65;;;;;;;-144.48;100.00;62369.91;5016395;28;20037;-68
2022/08/29 06:24:01;;;;;;;10.25;4.05;;;;;;;-144.48;100.00;62369.91;5029995;28;20041;-68
2022/08/29 06:26:27;;;;;;;13.77;4.18;;;;;;;-144.48;100.00;62369.91;5029589;28;20041;-66
2022/08/29 06:28:52;;;;;;;13.27;4.40;;;;;;;-144.48;100.00;62369.91;5030139;28;20021;-67
2022/08/29 06:31:21;;;;;;;10.05;4.18;;;;;;;-144.48;100.00;62369.91;5014924;28;20112;-66
2022/08/29 06:33:50;;;;;;;22.45;4.53;;;;;;;-144.48;100.00;62369.91;5029161;28;20078;-68
2022/08/29 06:36:16;;;;;;;18.08;4.78;;;;;;;-144.48;100.00;62369.91;5029263;28;20049;-69
2022/08/29 06:38:41;;;;;;;14.88;3.97;;;;;;;-144.48;100.00;62369.91;5029440;28;20056;-69
2022/08/29 06:41:12;;;;;;;17.02;4.43;;;;;;;-144.48;100.00;62369.91;5029790;28;20170;-69
2022/08/29 06:43:37;;;;;;;13.00;4.10;;;;;;;-144.48;100.00;62369.91;5029945;28;20074;-67
2022/08/29 06:46:03;;;;;;;13.23;3.75;;;;;;;-144.48;100.00;62369.91;5029331;28;20108;-69
2022/08/29 06:48:29;;;;;;;17.15;5.75;;;;;;;-144.48;100.00;62369.91;5026053;28;20022;-68
2022/08/29 06:50:55;;;;;;;9.43;3.15;;;;;;;-144.48;100.00;62369.91;5012466;28;20029;-68
2022/08/29 06:53:21;;;;;;;17.75;4.15;;;;;;;-144.48;100.00;62369.91;5029858;28;20053;-69
2022/08/29 06:55:47;;;;;;;12.13;3.53;;;;;;;-144.48;100.00;62369.91;5029667;28;20045;-69
2022/08/29 06:58:12;;;;;;;17.00;3.83;;;;;;;-144.48;100.00;62369.91;5019275;28;20077;-68
2022/08/29 07:00:42;;;;;;;12.60;3.58;;;;;;;-144.48;100.00;62369.91;5024381;28;20078;-67
2022/08/29 07:03:07;;;;;;;20.63;4.80;;;;;;;-144.48;100.00;62369.91;5029238;28;20021;-69
2022/08/29 07:05:33;;;;;;;20.88;3.78;;;;;;;-144.48;100.00;62369.91;5026236;28;20387;-69
2022/08/29 07:07:58;;;;;;;19.50;3.92;;;;;;;-144.48;100.00;62369.91;5028429;28;20036;-69
2022/08/29 07:10:23;;;;;;;18.30;3.90;;;;;;;-144.48;100.00;62369.91;5028661;28;20036;-67
2022/08/29 07:12:50;;;;;;;14.57;3.97;;;;;;;-144.48;100.00;62369.91;5028959;28;20025;-69
2022/08/29 07:15:16;;;;;;;8.65;2.95;;;;;;;-144.48;100.00;62369.91;5018507;28;20026;-69
2022/08/29 07:17:42;;;;;;;11.85;2.88;;;;;;;-144.48;100.00;62369.91;5028947;28;20056;-69
2022/08/29 07:20:08;;;;;;;9.80;3.00;;;;;;;-144.48;100.00;62369.91;5028212;28;20447;-67
2022/08/29 07:22:34;;;;;;;18.75;3.33;;;;;;;-144.48;100.00;62369.91;5028794;28;20025;-67
2022/08/29 07:25:00;;;;;;;17.10;3.88;;;;;;;-144.48;100.00;62369.91;5028830;28;20096;-70
2022/08/29 07:27:25;;;;;;;15.48;3.28;;;;;;;-144.48;100.00;62369.91;5028101;28;20103;-69
2022/08/29 07:29:51;;;;;;;10.20;2.88;;;;;;;-144.48;100.00;62369.91;5027948;28;20450;-68
2022/08/29 07:32:17;;;;;;;8.00;3.10;;;;;;;-144.48;100.00;62369.91;5028325;28;20037;-69
2022/08/29 07:34:42;;;;;;;16.73;3.40;;;;;;;-144.48;100.00;62369.91;5028261;28;20033;-69
2022/08/29 07:37:09;;;;;;;15.30;3.10;;;;;;;-144.48;100.00;62369.91;5027174;28;20018;-68
2022/08/29 07:39:35;;;;;;;11.48;2.90;;;;;;;-144.48;100.00;62369.91;5027257;28;20029;-67
2022/08/29 07:42:01;;;;;;;11.02;3.10;;;;;;;-144.48;100.00;62369.91;5028588;28;20404;-69
2022/08/29 07:44:26;;;;;;;16.88;3.75;;;;;;;-144.48;100.00;62369.91;5031133;28;20029;-68
2022/08/29 07:46:56;;;;;;;13.13;3.55;;;;;;;-144.48;100.00;62369.91;5030879;28;20444;-69
2022/08/29 07:49:23;;;;;;;11.00;3.05;;;;;;;-144.48;100.00;62369.91;5030999;28;20063;-66
2022/08/29 07:51:50;;;;;;;13.65;3.42;;;;;;;-144.48;100.00;62369.91;5032713;28;20033;-67
2022/08/29 07:54:17;;;;;;;8.30;2.95;;;;;;;-144.48;100.00;62369.91;5031766;28;20033;-69
2022/08/29 07:56:44;;;;;;;15.43;3.42;;;;;;;-144.48;100.00;62369.91;5032233;28;20091;-68
2022/08/29 07:59:10;;;;;;;6.95;2.85;;;;;;;-144.48;100.00;62369.91;5031690;28;20105;-65
2022/08/29 08:01:36;;;;;;;10.88;3.13;;;;;;;-144.48;100.00;62369.91;5031862;28;20061;-70
2022/08/29 08:04:02;;;;;;;10.73;3.25;;;;;;;-144.48;100.00;62369.91;5031688;28;20040;-68
2022/08/29 08:06:27;;;;;;;13.05;2.90;;;;;;;-144.48;100.00;62369.91;5032592;28;20400;-67
2022/08/29 08:08:54;;;;;;;10.25;2.53;;;;;;;-144.48;100.00;62369.91;5030866;28;20029;-67
2022/08/29 08:11:20;;;;;;;8.00;2.33;;;;;;;-144.48;100.00;62369.91;5028964;28;20021;-69
2022/08/29 08:13:46;;;;;;;11.43;2.30;;;;;;;-144.48;100.00;62369.91;5031739;28;20029;-70
2022/08/29 08:16:19;;;;;;;12.52;2.95;;;;;;;-144.48;100.00;62369.91;5031582;28;20040;-71
2022/08/29 08:18:45;;;;;;;14.35;2.90;;;;;;;-144.48;100.00;62369.91;5030035;28;20025;-68
2022/08/29 08:21:11;;;;;;;13.77;2.72;;;;;;;-144.48;100.00;62369.91;5031419;28;20028;-69
2022/08/29 08:23:37;;;;;;;10.00;2.58;;;;;;;-144.48;100.00;62369.91;5030818;28;20025;-69
2022/08/29 08:26:03;;;;;;;10.38;3.13;;;;;;;-144.48;100.00;62369.91;5022806;28;20057;-67
2022/08/29 08:28:29;;;;;;;18.55;3.60;;;;;;;-144.48;100.00;62369.91;5025827;28;20598;-66
2022/08/29 08:30:56;;;;;;;8.45;2.20;;;;;;;-144.48;100.00;62369.91;5034223;28;20653;-67
2022/08/29 08:33:22;;;;;;;5.80;2.20;;;;;;;-144.48;100.00;62369.91;5031357;28;20031;-70
2022/08/29 08:35:48;;;;;;;13.75;3.00;;;;;;;-144.48;100.00;62369.91;5019977;28;20505;-70
2022/08/29 08:38:15;;;;;;;11.70;3.10;;;;;;;-144.48;100.00;62369.91;5018392;28;20033;-68
2022/08/29 08:41:12;;;;;;;7.45;2.75;;;;;;;-144.48;100.00;62369.91;5017505;28;20597;-70
2022/08/29 08:44:12;;;;;;;7.72;2.47;;;;;;;-144.48;100.00;62369.91;5010481;28;20112;-68
2022/08/29 08:46:49;;;;;;;9.43;2.45;;;;;;;-144.48;100.00;62369.91;5030428;28;20044;-67
2022/08/29 08:49:20;;;;;;;14.85;2.67;;;;;;;-144.48;100.00;62369.91;5020662;28;20026;-68
2022/08/29 08:51:51;;;;;;;9.27;2.67;;;;;;;-144.48;100.00;62369.91;5030439;28;20078;-66
2022/08/29 08:54:25;;;;;;;9.80;2.63;;;;;;;-144.48;100.00;62369.91;5030550;28;20103;-67
2022/08/29 08:56:56;;;;;;;8.82;2.88;;;;;;;-144.48;100.00;62369.91;5028361;28;20348;-66
2022/08/29 08:59:41;;;;;;;8.23;2.80;;;;;;;-144.48;100.00;62369.91;5030179;28;20071;-67
2022/08/29 09:02:22;;;;;;;9.20;2.45;;;;;;;-144.48;100.00;62369.91;5016602;28;20032;-71
2022/08/29 09:05:02;;;;;;;10.40;2.70;;;;;;;-144.48;100.00;62369.91;5029048;28;20086;-67
2022/08/29 09:07:42;;;;;;;8.18;2.22;;;;;;;-144.48;100.00;62369.91;5029259;28;20021;-68
2022/08/29 09:10:17;;;;;;;4.50;2.28;;;;;;;-144.48;100.00;62369.91;5029431;28;20415;-68
2022/08/29 09:12:59;;;;;;;5.28;2.05;;;;;;;-144.48;100.00;62369.91;5029412;28;20029;-68
2022/08/29 09:15:32;;;;;;;9.27;2.28;;;;;;;-144.48;100.00;62369.91;5029236;28;20052;-68
2022/08/29 09:18:04;;;;;;;6.72;1.95;;;;;;;-144.48;100.00;62369.91;5029223;28;20060;-70
2022/08/29 09:20:37;;;;;;;11.00;2.88;;;;;;;-144.48;100.00;62369.91;5028847;28;20479;-68
2022/08/29 09:23:20;;;;;;;14.23;2.15;;;;;;;-144.48;100.00;62369.91;5025557;28;20026;-67
2022/08/29 09:25:46;;;;;;;9.75;2.20;;;;;;;-144.48;100.00;62369.91;5028944;28;20451;-67
2022/08/29 09:28:11;;;;;;;5.60;1.90;;;;;;;-144.48;100.00;62369.91;5029644;28;20059;-71
2022/08/29 09:30:43;;;;;;;3.83;1.55;;;;;;;-144.48;100.00;62369.91;5028336;28;20112;-71
2022/08/29 09:33:14;;;;;;;12.40;2.33;;;;;;;-144.48;100.00;62369.91;5030790;28;20025;-70
2022/08/29 09:35:46;;;;;;;5.55;1.77;;;;;;;-144.48;100.00;62369.91;5031001;28;20041;-68
2022/08/29 09:38:17;;;;;;;7.80;2.13;;;;;;;-144.48;100.00;62369.91;5029435;28;20622;-69
2022/08/29 09:40:54;;;;;;;5.13;1.90;;;;;;;-144.48;100.00;62369.91;5023392;28;20411;-69
2022/08/29 09:43:23;;;;;;;6.43;1.90;;;;;;;-144.48;100.00;62369.91;5030957;28;20028;-69
2022/08/29 09:46:15;;;;;;;7.10;2.22;;;;;;;-144.48;100.00;62369.91;5029779;28;20044;-70
2022/08/29 09:48:47;;;;;;;9.95;2.30;;;;;;;-144.48;100.00;62369.91;5030465;28;20033;-71
2022/08/29 09:51:21;;;;;;;5.10;2.00;;;;;;;-144.48;100.00;62369.91;5030889;28;20033;-70
2022/08/29 09:53:46;;;;;;;9.68;1.98;;;;;;;-144.48;100.00;62369.91;5029618;28;20057;-70
2022/08/29 09:56:20;;;;;;;9.82;2.22;;;;;;;-144.48;100.00;62369.91;5027711;28;20057;-69
2022/08/29 09:58:58;;;;;;;10.63;2.42;;;;;;;-144.48;100.00;62369.91;5029917;28;20104;-68
2022/08/29 10:01:23;;;;;;;5.75;1.67;;;;;;;-144.48;100.00;62369.91;5028846;28;20356;-70
2022/08/29 10:04:01;;;;;;;4.82;1.70;;;;;;;-144.48;100.00;62369.91;5027795;28;20048;-69
2022/08/29 10:06:38;;;;;;;8.17;2.10;;;;;;;-144.48;100.00;62369.91;5027949;28;20040;-69
2022/08/29 10:09:11;;;;;;;10.90;2.55;;;;;;;-144.48;100.00;62369.91;5028342;28;20037;-68
2022/08/29 10:11:59;;;;;;;5.70;2.15;;;;;;;-144.48;100.00;62369.91;5028394;28;20041;-68
2022/08/29 10:14:44;;;;;;;5.93;2.28;;;;;;;-144.48;100.00;62369.91;5015948;28;20021;-69
2022/08/29 10:20:08;;;;;;;6.60;2.05;;;;;;;-144.48;100.00;62369.91;5029096;28;20048;-68
2022/08/29 10:22:45;;;;;;;9.13;2.40;;;;;;;-144.48;100.00;62369.91;5024013;28;20039;-69
2022/08/29 10:25:17;;;;;;;9.30;2.17;;;;;;;-144.48;100.00;62369.91;5028655;28;20022;-69
2022/08/29 10:27:59;;;;;;;6.78;2.10;;;;;;;-144.48;100.00;62369.91;5028379;28;20371;-69
2022/08/29 10:30:32;;;;;;;9.05;2.20;;;;;;;-144.48;100.00;62369.91;5026073;28;20025;-68
2022/08/29 10:33:08;;;;;;;6.32;2.30;;;;;;;-144.48;100.00;62369.91;5024739;28;20029;-69
2022/08/29 10:35:42;;;;;;;6.28;1.90;;;;;;;-144.48;100.00;62369.91;5023822;28;20124;-68
2022/08/29 10:38:26;;;;;;;10.25;2.20;;;;;;;-144.48;100.00;62369.91;5024407;28;20542;-66
2022/08/29 10:41:11;;;;;;;9.88;2.17;;;;;;;-144.48;100.00;62369.91;5024410;28;20036;-68
2022/08/29 10:44:05;;;;;;;7.68;1.90;;;;;;;-144.48;100.00;62369.91;5025775;28;20025;-68
2022/08/29 10:46:33;;;;;;;6.88;1.98;;;;;;;-144.48;100.00;62369.91;5027025;28;20104;-68
2022/08/29 10:49:06;;;;;;;4.43;2.20;;;;;;;-144.48;100.00;62369.91;5027675;28;20070;-69
2022/08/29 10:51:55;;;;;;;5.53;2.10;;;;;;;-144.48;100.00;62369.91;5024310;28;20026;-71
2022/08/29 10:54:49;;;;;;;8.05;2.10;;;;;;;-144.48;100.00;62369.91;5028692;28;20431;-73
2022/08/29 10:57:37;;;;;;;11.57;2.47;;;;;;;-144.48;100.00;62369.91;5028153;28;20517;-71
2022/08/29 11:00:09;;;;;;;7.63;1.73;;;;;;;-144.48;100.00;62369.91;5027371;28;20044;-70
2022/08/29 11:02:47;;;;;;;11.20;2.67;;;;;;;-144.48;100.00;62369.91;5020997;28;20037;-72
2022/08/29 11:05:24;;;;;;;9.38;2.65;;;;;;;-144.48;100.00;62369.91;5027698;28;20039;-76
2022/08/29 11:08:18;;;;;;;6.03;2.05;;;;;;;-144.48;100.00;62369.91;5019320;28;20075;-77
2022/08/29 11:10:48;;;;;;;8.90;2.50;;;;;;;-144.48;100.00;62369.91;5016321;28;20450;-75
2022/08/29 11:13:17;;;;;;;3.97;1.80;;;;;;;-144.48;100.00;62369.91;5013558;28;20029;-73
2022/08/29 11:15:46;;;;;;;6.45;1.90;;;;;;;-144.48;100.00;62369.91;5022634;28;20048;-73
2022/08/29 11:18:30;;;;;;;6.35;2.00;;;;;;;-144.48;100.00;62369.91;5023379;28;20068;-73
2022/08/29 11:21:01;;;;;;;7.20;2.00;;;;;;;-144.48;100.00;62369.91;5027595;28;20086;-76
2022/08/29 11:23:36;;;;;;;6.63;1.80;;;;;;;-144.48;100.00;62369.91;5029000;28;20017;-70